Time;durP1;ratioP1;P1;durP2;ratioP2;P2;SDS_P1;SDS_P2;PMS_P1;PMS_P2;Temp;Humidity;BMP_temperature;BMP_pressure;BME280_temperature;BME280_humidity;BME280_pressure;Samples;Min_cycle;Max_cycle;Signal;HPM_P1;HPM_P2
2022/04/07 00:02:20;;;;;;;13.25;1.55;;;18.10;99.90;;;;;;5064988;28;20229;-71
2022/04/07 00:04:50;;;;;;;11.93;1.75;;;18.10;99.90;;;;;;5066789;28;20725;-72
2022/04/07 00:07:21;;;;;;;11.18;1.55;;;18.10;99.90;;;;;;5070148;28;20196;-72
2022/04/07 00:09:52;;;;;;;16.17;1.70;;;18.20;99.90;;;;;;5070695;28;20683;-72
2022/04/07 00:12:22;;;;;;;16.65;1.70;;;18.20;99.90;;;;;;5066567;28;20193;-72
2022/04/07 00:14:55;;;;;;;13.63;1.70;;;18.20;99.90;;;;;;5063871;28;20209;-71
2022/04/07 00:17:25;;;;;;;17.73;1.88;;;18.30;99.90;;;;;;5066609;28;20189;-72
2022/04/07 00:19:56;;;;;;;18.25;1.85;;;18.30;99.90;;;;;;5067472;28;20258;-71
2022/04/07 00:22:26;;;;;;;15.15;2.03;;;18.30;99.90;;;;;;5063554;28;20197;-71
2022/04/07 00:24:58;;;;;;;15.25;2.45;;;18.30;99.90;;;;;;5063980;28;21701;-71
2022/04/07 00:27:29;;;;;;;13.35;2.03;;;18.20;99.90;;;;;;5072806;28;20262;-74
2022/04/07 00:30:02;;;;;;;9.85;1.58;;;18.10;99.90;;;;;;5072291;28;20205;-74
2022/04/07 00:32:33;;;;;;;13.77;1.50;;;18.00;99.90;;;;;;5072397;28;20283;-72
2022/04/07 00:35:06;;;;;;;14.32;1.95;;;17.90;99.90;;;;;;5069632;28;20209;-77
2022/04/07 00:37:37;;;;;;;15.55;2.47;;;17.90;99.90;;;;;;5072782;28;20212;-72
2022/04/07 00:40:08;;;;;;;18.98;2.25;;;17.90;99.90;;;;;;5077463;28;20205;-70
2022/04/07 00:42:47;;;;;;;23.42;2.65;;;17.90;99.90;;;;;;5072113;28;20424;-70
2022/04/07 00:45:21;;;;;;;58.80;32.10;;;18.00;99.90;;;;;;5065928;28;20200;-70
2022/04/07 00:47:52;;;;;;;43.33;14.57;;;18.10;99.90;;;;;;5069517;28;20818;-69
2022/04/07 00:50:23;;;;;;;18.13;3.72;;;18.10;99.90;;;;;;5071763;28;20278;-70
2022/04/07 00:52:57;;;;;;;22.23;2.35;;;18.20;99.90;;;;;;5068855;28;20226;-72
2022/04/07 00:55:29;;;;;;;13.10;1.70;;;18.10;99.90;;;;;;5068957;28;20198;-70
2022/04/07 00:58:01;;;;;;;18.55;2.15;;;18.10;99.90;;;;;;5072311;28;20197;-72
2022/04/07 01:00:34;;;;;;;18.27;2.25;;;18.10;99.90;;;;;;5072325;28;20288;-72
2022/04/07 01:03:05;;;;;;;15.85;1.88;;;18.20;99.90;;;;;;5072058;28;20224;-70
2022/04/07 01:05:35;;;;;;;19.38;2.20;;;18.20;99.90;;;;;;5072352;28;20262;-71
2022/04/07 01:08:07;;;;;;;11.48;2.00;;;18.20;99.90;;;;;;5072158;28;20189;-71
2022/04/07 01:10:38;;;;;;;24.13;3.10;;;18.20;99.90;;;;;;5071551;28;20193;-70
2022/04/07 01:13:09;;;;;;;20.33;2.30;;;18.20;99.90;;;;;;5071902;28;20262;-71
2022/04/07 01:15:41;;;;;;;9.02;1.70;;;18.20;99.90;;;;;;5071448;28;20189;-71
2022/04/07 01:18:12;;;;;;;10.07;1.40;;;17.90;99.90;;;;;;5068161;28;20640;-70
2022/04/07 01:20:43;;;;;;;15.30;2.15;;;17.80;99.90;;;;;;5071659;28;20185;-71
2022/04/07 01:23:13;;;;;;;18.15;2.30;;;17.80;99.90;;;;;;5072149;28;20212;-72
2022/04/07 01:25:46;;;;;;;18.55;2.10;;;17.80;99.90;;;;;;5071892;28;20197;-71
2022/04/07 01:28:16;;;;;;;19.83;2.10;;;17.80;99.90;;;;;;5072028;28;20598;-72
2022/04/07 01:30:47;;;;;;;17.55;1.90;;;17.90;99.90;;;;;;5072620;28;20659;-72
2022/04/07 01:33:18;;;;;;;20.23;2.05;;;17.80;99.90;;;;;;5072012;28;20201;-72
2022/04/07 01:35:48;;;;;;;14.68;1.58;;;17.80;99.90;;;;;;5071645;28;20282;-71
2022/04/07 01:38:19;;;;;;;12.73;1.65;;;17.60;99.90;;;;;;5068376;28;20205;-72
2022/04/07 01:40:53;;;;;;;12.00;1.73;;;17.60;99.90;;;;;;5071451;28;20189;-73
2022/04/07 01:43:24;;;;;;;9.13;1.67;;;17.60;99.90;;;;;;5071417;28;20213;-72
2022/04/07 01:45:55;;;;;;;12.43;1.77;;;17.60;99.90;;;;;;5066951;28;20242;-73
2022/04/07 01:48:26;;;;;;;10.55;1.70;;;17.60;99.90;;;;;;5070849;28;20197;-73
2022/04/07 01:50:58;;;;;;;12.32;1.60;;;17.60;99.90;;;;;;5072306;28;20221;-71
2022/04/07 01:53:29;;;;;;;14.68;1.75;;;17.70;99.90;;;;;;5072002;28;20185;-72
2022/04/07 01:56:03;;;;;;;17.08;1.80;;;17.70;99.90;;;;;;5072317;28;20648;-73
2022/04/07 01:58:34;;;;;;;11.10;1.70;;;17.70;99.90;;;;;;5075284;28;20185;-72
2022/04/07 02:01:05;;;;;;;12.88;1.58;;;17.70;99.90;;;;;;5076716;28;20235;-71
2022/04/07 02:03:35;;;;;;;9.52;1.70;;;17.80;99.90;;;;;;5079267;28;20212;-72
2022/04/07 02:06:19;;;;;;;14.27;1.88;;;17.80;99.90;;;;;;5079070;28;20644;-71
2022/04/07 02:08:52;;;;;;;16.48;1.83;;;17.90;99.90;;;;;;5077114;28;20266;-72
2022/04/07 02:11:25;;;;;;;15.40;2.70;;;17.90;99.90;;;;;;5075259;28;20242;-72
2022/04/07 02:13:55;;;;;;;14.30;1.88;;;18.00;99.90;;;;;;5069612;28;20242;-71
2022/04/07 02:16:27;;;;;;;12.05;1.77;;;18.00;99.90;;;;;;5078391;28;20189;-71
2022/04/07 02:18:58;;;;;;;17.35;2.15;;;18.00;99.90;;;;;;5069432;28;20243;-73
2022/04/07 02:21:29;;;;;;;11.63;1.35;;;17.90;99.90;;;;;;5076512;28;20189;-76
2022/04/07 02:23:59;;;;;;;11.80;1.52;;;17.90;99.90;;;;;;5074417;28;20215;-74
2022/04/07 02:26:32;;;;;;;15.70;1.92;;;17.90;99.90;;;;;;5071090;28;20223;-71
2022/04/07 02:29:03;;;;;;;13.02;2.08;;;17.90;99.90;;;;;;5064180;28;20655;-72
2022/04/07 02:31:33;;;;;;;12.43;1.70;;;17.90;99.90;;;;;;5074896;28;20242;-71
2022/04/07 02:34:04;;;;;;;10.80;2.22;;;17.80;99.90;;;;;;5079860;28;20295;-72
2022/04/07 02:36:34;;;;;;;14.18;1.75;;;17.80;99.90;;;;;;5079244;28;20197;-72
2022/04/07 02:39:05;;;;;;;13.82;1.73;;;17.80;99.90;;;;;;5078727;28;20188;-71
2022/04/07 02:41:37;;;;;;;10.40;1.90;;;17.80;99.90;;;;;;5069454;28;20246;-72
2022/04/07 02:44:08;;;;;;;13.82;1.95;;;17.80;99.90;;;;;;5077141;28;20220;-71
2022/04/07 02:46:39;;;;;;;16.42;1.73;;;17.90;99.90;;;;;;5074892;28;20239;-71
2022/04/07 02:49:10;;;;;;;11.50;1.90;;;17.90;99.90;;;;;;5074462;28;20216;-72
2022/04/07 02:51:41;;;;;;;13.73;1.90;;;17.90;99.90;;;;;;5074266;28;20578;-72
2022/04/07 02:54:11;;;;;;;13.30;1.85;;;18.00;99.90;;;;;;5074365;28;20644;-72
2022/04/07 02:56:44;;;;;;;9.00;1.77;;;18.00;99.90;;;;;;5076785;28;20185;-72
2022/04/07 02:59:15;;;;;;;14.57;2.10;;;18.00;99.90;;;;;;5076133;28;20239;-72
2022/04/07 03:01:45;;;;;;;11.52;1.70;;;18.00;99.90;;;;;;5074576;28;20636;-73
2022/04/07 03:04:16;;;;;;;18.73;2.10;;;18.00;99.90;;;;;;5073338;28;20209;-72
2022/04/07 03:06:47;;;;;;;13.82;2.22;;;18.00;99.90;;;;;;5079389;28;20185;-72
2022/04/07 03:09:17;;;;;;;11.38;1.90;;;18.10;99.90;;;;;;5075210;28;20185;-72
2022/04/07 03:11:50;;;;;;;12.65;2.03;;;18.00;99.90;;;;;;5075514;28;20181;-73
2022/04/07 03:14:22;;;;;;;15.10;1.58;;;18.10;99.90;;;;;;5071556;28;20251;-72
2022/04/07 03:16:53;;;;;;;12.85;2.08;;;18.10;99.90;;;;;;5063376;28;20201;-72
2022/04/07 03:19:23;;;;;;;16.20;2.42;;;18.10;99.90;;;;;;5076584;28;20185;-71
2022/04/07 03:21:55;;;;;;;14.38;2.35;;;18.20;99.90;;;;;;5075465;28;20235;-73
2022/04/07 03:24:25;;;;;;;15.27;2.40;;;18.20;99.90;;;;;;5075119;28;20249;-73
2022/04/07 03:26:58;;;;;;;15.27;2.42;;;18.30;99.90;;;;;;5072711;28;20188;-73
2022/04/07 03:29:30;;;;;;;13.73;2.35;;;18.30;99.90;;;;;;5073434;28;20189;-72
2022/04/07 03:32:00;;;;;;;16.23;1.88;;;18.40;99.90;;;;;;5074132;28;20548;-71
2022/04/07 03:34:31;;;;;;;20.15;2.20;;;18.50;99.90;;;;;;5069451;28;20196;-72
2022/04/07 03:37:02;;;;;;;15.50;1.90;;;18.50;99.90;;;;;;5073890;28;20193;-72
2022/04/07 03:39:33;;;;;;;16.80;2.13;;;18.60;99.90;;;;;;5073085;28;20246;-72
2022/04/07 03:42:05;;;;;;;20.15;2.40;;;18.60;99.90;;;;;;5074115;28;20250;-72
2022/04/07 03:44:36;;;;;;;18.98;2.53;;;18.70;99.90;;;;;;5073765;28;20239;-72
2022/04/07 03:47:07;;;;;;;18.52;2.20;;;18.80;99.90;;;;;;5074036;28;20195;-72
2022/04/07 03:49:38;;;;;;;15.55;2.50;;;18.80;99.90;;;;;;5073664;28;20216;-76
2022/04/07 03:52:09;;;;;;;18.52;2.22;;;18.80;99.90;;;;;;5074012;28;20211;-71
2022/04/07 03:54:40;;;;;;;13.40;1.90;;;18.80;99.90;;;;;;5074674;28;20191;-71
2022/04/07 03:57:13;;;;;;;20.25;2.22;;;18.80;99.90;;;;;;5073894;28;20234;-71
2022/04/07 03:59:43;;;;;;;22.55;2.60;;;18.80;99.90;;;;;;5073810;28;20647;-73
2022/04/07 04:02:14;;;;;;;22.52;2.70;;;18.80;99.90;;;;;;5077928;28;20262;-71
2022/04/07 04:04:45;;;;;;;16.95;2.15;;;18.90;99.90;;;;;;5065438;28;20209;-71
2022/04/07 04:07:15;;;;;;;12.85;1.95;;;18.90;99.90;;;;;;5067997;28;20211;-73
2022/04/07 04:09:47;;;;;;;23.50;2.30;;;18.80;99.90;;;;;;5069883;28;20656;-78
2022/04/07 04:12:20;;;;;;;18.65;1.98;;;18.80;99.90;;;;;;5072685;28;20675;-71
2022/04/07 04:14:50;;;;;;;12.35;1.90;;;18.80;99.90;;;;;;5072701;28;20185;-71
2022/04/07 04:17:21;;;;;;;14.18;2.00;;;18.80;99.90;;;;;;5073581;28;20193;-71
2022/04/07 04:19:52;;;;;;;22.88;2.35;;;18.80;99.90;;;;;;5072985;28;20185;-71
2022/04/07 04:22:22;;;;;;;20.83;2.40;;;18.80;99.90;;;;;;5072898;28;20187;-71
2022/04/07 04:24:53;;;;;;;21.77;2.67;;;18.80;99.90;;;;;;5073090;28;20215;-71
2022/04/07 04:27:26;;;;;;;19.05;2.30;;;18.90;99.90;;;;;;5073113;28;20189;-71
2022/04/07 04:29:56;;;;;;;14.65;2.17;;;18.90;99.90;;;;;;5072717;28;20181;-74
2022/04/07 04:32:27;;;;;;;14.38;1.70;;;18.80;99.90;;;;;;5076072;28;20196;-71
2022/04/07 04:34:57;;;;;;;18.45;2.33;;;18.80;99.90;;;;;;5074417;28;20246;-72
2022/04/07 04:37:28;;;;;;;20.80;2.67;;;18.80;99.90;;;;;;5072816;28;20243;-72
2022/04/07 04:39:59;;;;;;;14.70;2.17;;;18.80;99.90;;;;;;5084303;28;20640;-71
2022/04/07 04:42:32;;;;;;;13.20;1.83;;;18.80;99.90;;;;;;5070048;28;20201;-73
2022/04/07 04:45:02;;;;;;;12.60;2.03;;;18.80;99.90;;;;;;5069746;28;20220;-72
2022/04/07 04:47:34;;;;;;;16.05;1.90;;;18.70;99.90;;;;;;5074760;28;20644;-72
2022/04/07 04:50:07;;;;;;;17.20;2.10;;;18.70;99.90;;;;;;5070350;28;20240;-71
2022/04/07 04:52:38;;;;;;;13.48;2.50;;;18.80;99.90;;;;;;5073568;28;20209;-75
2022/04/07 04:55:09;;;;;;;14.38;2.13;;;18.80;99.90;;;;;;5072903;28;20197;-72
2022/04/07 04:57:42;;;;;;;20.20;2.10;;;18.80;99.90;;;;;;5072849;28;20189;-72
2022/04/07 05:00:13;;;;;;;19.73;2.20;;;18.80;99.90;;;;;;5072046;28;20192;-72
2022/04/07 05:02:44;;;;;;;18.55;2.00;;;18.80;99.90;;;;;;5060262;28;20267;-72
2022/04/07 05:05:15;;;;;;;20.35;2.83;;;18.80;99.90;;;;;;5072790;28;20223;-71
2022/04/07 05:07:45;;;;;;;20.70;2.60;;;18.90;99.90;;;;;;5072164;28;20582;-74
2022/04/07 05:10:16;;;;;;;18.23;2.45;;;18.80;99.90;;;;;;5072082;28;20201;-72
2022/04/07 05:12:49;;;;;;;18.98;2.30;;;18.80;99.90;;;;;;5072171;28;20643;-73
2022/04/07 05:15:20;;;;;;;19.50;2.75;;;18.80;99.90;;;;;;5071430;28;20205;-73
2022/04/07 05:17:51;;;;;;;20.15;2.28;;;18.80;99.90;;;;;;5074130;28;20594;-71
2022/04/07 05:20:23;;;;;;;14.05;2.22;;;18.90;99.90;;;;;;5067018;28;20686;-72
2022/04/07 05:22:53;;;;;;;22.75;2.95;;;18.90;99.90;;;;;;5074492;28;20188;-72
2022/04/07 05:25:24;;;;;;;16.35;2.05;;;18.80;99.90;;;;;;5072719;28;20239;-72
2022/04/07 05:27:57;;;;;;;19.38;2.40;;;18.70;99.90;;;;;;5072569;28;20185;-73
2022/04/07 05:30:27;;;;;;;15.88;2.58;;;18.80;99.90;;;;;;5075398;28;20193;-71
2022/04/07 05:32:59;;;;;;;18.42;2.30;;;18.70;99.90;;;;;;5074331;28;20243;-82
2022/04/07 05:35:30;;;;;;;14.52;2.20;;;18.70;99.90;;;;;;5072462;28;20196;-80
2022/04/07 05:38:04;;;;;;;17.90;2.35;;;18.70;99.90;;;;;;5073137;28;20276;-73
2022/04/07 05:40:35;;;;;;;16.63;2.42;;;18.60;99.90;;;;;;5077810;28;20656;-73
2022/04/07 05:43:08;;;;;;;19.35;2.72;;;18.60;99.90;;;;;;5076100;28;20558;-74
2022/04/07 05:45:39;;;;;;;15.32;1.98;;;18.60;99.90;;;;;;5075815;28;20212;-74
2022/04/07 05:48:10;;;;;;;17.83;2.50;;;18.60;99.90;;;;;;5077512;28;20189;-74
2022/04/07 05:50:41;;;;;;;21.17;2.55;;;18.60;99.90;;;;;;5071405;28;20278;-75
2022/04/07 05:53:12;;;;;;;22.95;2.90;;;18.60;99.90;;;;;;5075560;28;20198;-72
2022/04/07 05:55:43;;;;;;;20.90;2.15;;;18.60;99.90;;;;;;5070973;28;20629;-72
2022/04/07 05:58:15;;;;;;;22.83;4.10;;;18.50;99.90;;;;;;5072041;28;20610;-72
2022/04/07 06:00:46;;;;;;;20.90;4.50;;;18.50;99.90;;;;;;5069345;28;20185;-73
2022/04/07 06:03:17;;;;;;;23.30;4.20;;;18.50;99.90;;;;;;5072979;28;20247;-77
2022/04/07 06:05:52;;;;;;;18.70;3.55;;;18.50;99.90;;;;;;5073820;28;20209;-75
2022/04/07 06:08:23;;;;;;;21.70;3.33;;;18.40;99.90;;;;;;5070598;28;20235;-73
2022/04/07 06:10:54;;;;;;;22.02;2.70;;;18.40;99.90;;;;;;5074904;28;20254;-75
2022/04/07 06:13:26;;;;;;;19.13;3.05;;;18.40;99.90;;;;;;5070383;28;20645;-74
2022/04/07 06:15:57;;;;;;;20.67;2.47;;;18.40;99.90;;;;;;5066703;28;20193;-74
2022/04/07 06:18:28;;;;;;;16.10;2.65;;;18.50;99.90;;;;;;5070338;28;20221;-73
2022/04/07 06:20:58;;;;;;;24.70;2.95;;;18.50;99.90;;;;;;5071259;28;20189;-75
2022/04/07 06:23:31;;;;;;;19.38;2.53;;;18.50;99.90;;;;;;5068945;28;20181;-73
2022/04/07 06:26:02;;;;;;;21.08;2.17;;;18.50;99.90;;;;;;5072839;28;20300;-74
2022/04/07 06:28:35;;;;;;;29.08;3.05;;;18.50;99.90;;;;;;5071982;28;20189;-73
2022/04/07 06:31:05;;;;;;;22.83;2.88;;;18.50;99.90;;;;;;5069682;28;20216;-74
2022/04/07 06:33:36;;;;;;;20.52;2.78;;;18.50;99.90;;;;;;5070899;28;20196;-74
2022/04/07 06:36:07;;;;;;;18.45;2.55;;;18.50;99.90;;;;;;5068310;28;20279;-73
2022/04/07 06:38:38;;;;;;;20.05;3.10;;;18.50;99.90;;;;;;5074208;28;20193;-79
2022/04/07 06:41:08;;;;;;;23.70;2.90;;;18.50;99.90;;;;;;5067252;28;20189;-75
2022/04/07 06:43:41;;;;;;;20.73;2.53;;;18.50;99.90;;;;;;5073025;28;20300;-73
2022/04/07 06:46:12;;;;;;;23.90;2.85;;;18.50;99.90;;;;;;5072608;28;20216;-72
2022/04/07 06:48:42;;;;;;;19.23;2.30;;;18.40;99.90;;;;;;5067947;28;20266;-72
2022/04/07 06:51:14;;;;;;;17.38;2.67;;;18.40;99.90;;;;;;5067059;28;20270;-72
2022/04/07 06:53:44;;;;;;;16.20;2.20;;;18.30;99.90;;;;;;5070664;28;20272;-72
2022/04/07 06:56:15;;;;;;;17.70;2.38;;;18.40;99.90;;;;;;5071253;28;20192;-71
2022/04/07 06:58:47;;;;;;;18.02;2.40;;;18.30;99.90;;;;;;5072700;28;20686;-73
2022/04/07 07:01:18;;;;;;;19.92;2.25;;;18.40;99.90;;;;;;5071273;28;20564;-73
2022/04/07 07:03:49;;;;;;;21.52;2.58;;;18.40;99.90;;;;;;5070154;28;20189;-71
2022/04/07 07:06:19;;;;;;;20.67;2.58;;;18.40;99.90;;;;;;5069969;28;20223;-71
2022/04/07 07:08:50;;;;;;;16.00;1.80;;;18.40;99.90;;;;;;5063417;28;20242;-72
2022/04/07 07:11:20;;;;;;;15.65;2.35;;;18.30;99.90;;;;;;5066340;28;20247;-71
2022/04/07 07:13:53;;;;;;;19.85;2.42;;;18.30;99.90;;;;;;5067023;28;20189;-71
2022/04/07 07:16:23;;;;;;;16.95;1.95;;;18.30;99.90;;;;;;5065611;28;20672;-71
2022/04/07 07:18:54;;;;;;;19.48;2.20;;;18.40;99.90;;;;;;5068192;28;20643;-73
2022/04/07 07:21:25;;;;;;;16.95;2.30;;;18.40;99.90;;;;;;5066465;28;20181;-72
2022/04/07 07:23:55;;;;;;;15.38;1.95;;;18.40;99.90;;;;;;5068006;28;20239;-71
2022/04/07 07:26:26;;;;;;;15.98;2.70;;;18.40;99.90;;;;;;5073120;28;20208;-71
2022/04/07 07:28:58;;;;;;;22.02;2.15;;;18.40;99.90;;;;;;5069310;28;20242;-70
2022/04/07 07:31:30;;;;;;;13.60;2.10;;;18.40;99.90;;;;;;5068794;28;20546;-72
2022/04/07 07:34:00;;;;;;;12.90;1.67;;;18.40;99.90;;;;;;5070278;28;20189;-71
2022/04/07 07:36:31;;;;;;;14.10;2.28;;;18.50;99.90;;;;;;5070874;28;20190;-71
2022/04/07 07:39:01;;;;;;;17.52;2.72;;;18.50;99.90;;;;;;5070003;28;20242;-74
2022/04/07 07:41:32;;;;;;;13.23;1.83;;;18.60;99.90;;;;;;5071172;28;20181;-71
2022/04/07 07:44:04;;;;;;;12.93;1.80;;;18.60;99.90;;;;;;5067808;28;20262;-71
2022/04/07 07:46:35;;;;;;;12.30;1.90;;;18.50;99.90;;;;;;5071913;28;20267;-71
2022/04/07 07:49:08;;;;;;;13.85;1.83;;;18.50;99.90;;;;;;5070589;28;20276;-71
2022/04/07 07:51:39;;;;;;;15.70;2.05;;;18.60;99.90;;;;;;5071368;28;20212;-71
2022/04/07 07:54:10;;;;;;;16.73;2.10;;;18.60;99.90;;;;;;5072272;28;20239;-71
2022/04/07 07:56:40;;;;;;;13.10;1.92;;;18.60;99.90;;;;;;5074185;28;20189;-71
2022/04/07 07:59:13;;;;;;;8.10;1.67;;;18.60;99.90;;;;;;5073777;28;20186;-70
2022/04/07 08:01:43;;;;;;;17.80;2.20;;;18.60;99.90;;;;;;5071297;28;20220;-70
2022/04/07 08:04:14;;;;;;;16.50;2.08;;;18.60;99.90;;;;;;5069504;28;20243;-70
2022/04/07 08:06:44;;;;;;;16.40;2.20;;;18.60;99.90;;;;;;5071825;28;20216;-71
2022/04/07 08:09:16;;;;;;;19.17;2.03;;;18.60;99.90;;;;;;5072626;28;20648;-70
2022/04/07 08:11:46;;;;;;;22.92;2.47;;;18.60;99.90;;;;;;5069461;28;20297;-70
2022/04/07 08:14:19;;;;;;;14.77;2.60;;;18.70;99.90;;;;;;5071264;28;20361;-70
2022/04/07 08:16:49;;;;;;;18.40;2.35;;;18.80;99.90;;;;;;5073538;28;20242;-72
2022/04/07 08:19:20;;;;;;;20.13;3.28;;;18.90;99.90;;;;;;5081162;28;20193;-70
2022/04/07 08:21:51;;;;;;;15.50;2.35;;;19.00;99.90;;;;;;5074455;28;20185;-69
2022/04/07 08:24:22;;;;;;;17.27;2.20;;;19.10;99.90;;;;;;5074214;28;20193;-70
2022/04/07 08:26:53;;;;;;;13.90;2.10;;;19.10;99.90;;;;;;5074286;28;20741;-70
2022/04/07 08:29:25;;;;;;;16.35;2.10;;;19.20;99.90;;;;;;5071570;28;20189;-71
2022/04/07 08:31:56;;;;;;;16.75;2.22;;;19.30;99.90;;;;;;5068453;28;20258;-70
2022/04/07 08:34:27;;;;;;;16.42;2.40;;;19.30;99.90;;;;;;5072690;28;20193;-70
2022/04/07 08:36:57;;;;;;;18.80;2.08;;;19.40;99.90;;;;;;5072007;28;20562;-70
2022/04/07 08:39:28;;;;;;;12.43;1.77;;;19.30;99.90;;;;;;5072518;28;20185;-71
2022/04/07 08:41:59;;;;;;;13.35;2.03;;;19.20;99.90;;;;;;5074713;28;20633;-73
2022/04/07 08:44:33;;;;;;;16.73;2.40;;;19.30;99.90;;;;;;5067975;28;20683;-72
2022/04/07 08:47:04;;;;;;;19.95;2.25;;;19.30;99.90;;;;;;5073344;28;20272;-73
2022/04/07 08:49:39;;;;;;;15.30;2.00;;;19.40;99.90;;;;;;5071124;28;20228;-71
2022/04/07 08:52:10;;;;;;;14.18;1.80;;;19.40;99.90;;;;;;5070467;28;20277;-73
2022/04/07 08:54:42;;;;;;;12.88;2.00;;;19.50;99.90;;;;;;5071684;28;20188;-71
2022/04/07 08:57:13;;;;;;;9.27;1.80;;;19.50;99.90;;;;;;5067611;28;20280;-70
2022/04/07 08:59:45;;;;;;;15.88;2.00;;;19.60;99.90;;;;;;5076239;28;20192;-69
2022/04/07 09:02:16;;;;;;;15.10;2.08;;;19.60;99.90;;;;;;5065652;28;20213;-69
2022/04/07 09:04:47;;;;;;;17.55;2.55;;;19.50;99.90;;;;;;5077336;28;20185;-70
2022/04/07 09:07:18;;;;;;;15.15;2.30;;;19.50;99.90;;;;;;5077134;28;20235;-74
2022/04/07 09:09:48;;;;;;;17.63;2.13;;;19.50;99.90;;;;;;5072341;28;20577;-69
2022/04/07 09:12:26;;;;;;;12.98;1.75;;;19.60;99.90;;;;;;5066541;28;20212;-78
2022/04/07 09:15:01;;;;;;;14.35;2.08;;;19.50;99.90;;;;;;5067037;28;20270;-71
2022/04/07 09:17:34;;;;;;;17.30;2.30;;;19.50;99.90;;;;;;5071937;28;20644;-71
2022/04/07 09:20:12;;;;;;;19.13;4.93;;;19.60;99.90;;;;;;5081799;28;20647;-70
2022/04/07 09:22:43;;;;;;;13.20;2.63;;;19.60;99.90;;;;;;5069326;28;20238;-77
2022/04/07 09:25:15;;;;;;;13.07;2.13;;;19.60;99.90;;;;;;5068752;28;20250;-76
2022/04/07 09:27:50;;;;;;;12.52;2.20;;;19.50;99.90;;;;;;5067115;28;20657;-70
2022/04/07 09:30:23;;;;;;;14.00;1.50;;;19.50;99.90;;;;;;5061772;28;20185;-71
2022/04/07 09:32:53;;;;;;;10.68;2.00;;;19.50;99.90;;;;;;5068253;28;20199;-73
2022/04/07 09:35:24;;;;;;;14.82;2.38;;;19.50;99.90;;;;;;5070714;28;20609;-70
2022/04/07 09:38:02;;;;;;;12.63;1.90;;;19.60;99.90;;;;;;5069271;28;20658;-71
2022/04/07 09:40:33;;;;;;;13.27;1.85;;;19.60;99.90;;;;;;5070519;28;20185;-71
2022/04/07 09:43:06;;;;;;;13.80;2.47;;;19.60;99.90;;;;;;5072944;28;20209;-70
2022/04/07 09:45:47;;;;;;;16.52;2.15;;;19.70;99.90;;;;;;5069810;28;20186;-77
2022/04/07 09:48:21;;;;;;;17.58;2.00;;;19.60;99.90;;;;;;5069153;28;20258;-81
2022/04/07 09:51:08;;;;;;;12.18;1.88;;;19.60;99.90;;;;;;5072154;28;20277;-77
2022/04/07 09:53:41;;;;;;;14.43;2.20;;;19.60;99.90;;;;;;5073860;28;20235;-77
2022/04/07 09:56:12;;;;;;;15.13;1.90;;;19.60;99.90;;;;;;5066105;28;20641;-79
2022/04/07 09:58:44;;;;;;;13.80;2.10;;;19.50;99.90;;;;;;5064766;28;20250;-70
2022/04/07 10:01:16;;;;;;;12.73;2.10;;;19.50;99.90;;;;;;5066123;28;20213;-79
2022/04/07 10:03:47;;;;;;;11.85;2.17;;;19.60;99.90;;;;;;5075822;28;20229;-79
2022/04/07 10:06:19;;;;;;;16.35;2.17;;;19.60;99.90;;;;;;5068385;28;20205;-78
2022/04/07 10:08:52;;;;;;;12.00;2.40;;;19.60;99.90;;;;;;5071347;28;20197;-76
2022/04/07 10:11:23;;;;;;;16.67;2.10;;;19.60;99.90;;;;;;5065158;28;20189;-75
2022/04/07 10:13:54;;;;;;;10.80;1.67;;;19.70;99.90;;;;;;5079656;28;20477;-71
2022/04/07 10:16:27;;;;;;;12.00;2.05;;;19.60;99.90;;;;;;5067460;28;20560;-76
2022/04/07 10:19:01;;;;;;;11.38;1.98;;;19.70;99.90;;;;;;5071920;28;20265;-75
2022/04/07 10:21:58;;;;;;;12.02;1.83;;;19.70;99.90;;;;;;5067802;28;20194;-77
2022/04/07 10:24:37;;;;;;;11.77;1.65;;;19.70;99.90;;;;;;5070022;28;20219;-75
2022/04/07 10:27:11;;;;;;;13.05;1.65;;;19.70;99.90;;;;;;5079781;28;20208;-71
2022/04/07 10:29:41;;;;;;;13.32;1.73;;;19.80;99.90;;;;;;5077660;28;20193;-70
2022/04/07 10:32:27;;;;;;;11.52;2.30;;;19.80;99.90;;;;;;5064690;28;20189;-74
2022/04/07 10:34:59;;;;;;;11.73;1.95;;;19.80;99.90;;;;;;5070715;28;20185;-69
2022/04/07 10:37:34;;;;;;;9.05;1.77;;;19.70;99.90;;;;;;5075267;28;20193;-70
2022/04/07 10:40:35;;;;;;;9.55;1.52;;;19.70;99.90;;;;;;5069068;28;20202;-71
2022/04/07 10:43:20;;;;;;;9.95;1.63;;;19.80;99.90;;;;;;5069010;28;20201;-70
2022/04/07 10:45:52;;;;;;;13.68;2.05;;;19.90;99.90;;;;;;5073597;28;20641;-70
2022/04/07 10:48:30;;;;;;;10.43;1.45;;;19.90;99.90;;;;;;5070895;28;20234;-70
2022/04/07 10:51:02;;;;;;;14.63;1.75;;;19.90;99.90;;;;;;5071829;28;20746;-72
2022/04/07 10:53:35;;;;;;;12.57;2.15;;;19.90;99.90;;;;;;5078099;28;20188;-71
2022/04/07 10:56:07;;;;;;;16.45;1.92;;;20.10;99.90;;;;;;5075645;28;20204;-70
2022/04/07 10:58:42;;;;;;;12.32;1.70;;;20.10;99.90;;;;;;5080312;28;20193;-72
2022/04/07 11:01:18;;;;;;;12.60;1.92;;;20.10;99.90;;;;;;5076031;28;20287;-70
2022/04/07 11:04:20;;;;;;;10.85;1.73;;;20.20;99.90;;;;;;5079771;28;20191;-70
2022/04/07 11:07:16;;;;;;;11.35;1.70;;;20.10;99.90;;;;;;5071760;28;20220;-71
2022/04/07 11:09:48;;;;;;;10.68;1.67;;;20.10;99.90;;;;;;5075893;28;20188;-70
2022/04/07 11:12:28;;;;;;;9.68;1.40;;;20.00;99.90;;;;;;5067611;28;20185;-71
2022/04/07 11:15:19;;;;;;;13.73;1.63;;;20.00;99.90;;;;;;5077687;28;20189;-71
2022/04/07 11:17:59;;;;;;;10.32;1.65;;;19.90;99.90;;;;;;5077214;28;20272;-70
2022/04/07 11:20:30;;;;;;;12.43;1.63;;;20.00;99.90;;;;;;5081156;28;20702;-70
2022/04/07 11:23:05;;;;;;;15.45;1.73;;;20.00;99.90;;;;;;5074844;28;20187;-71
2022/04/07 11:25:37;;;;;;;11.65;1.50;;;20.00;99.90;;;;;;5079489;28;20276;-72
2022/04/07 11:28:12;;;;;;;11.15;1.70;;;20.00;99.90;;;;;;5074699;28;20703;-70
2022/04/07 11:30:48;;;;;;;12.35;1.65;;;20.00;99.90;;;;;;5074599;28;20191;-69
2022/04/07 11:33:30;;;;;;;15.00;1.73;;;19.80;99.90;;;;;;5078854;28;20202;-71
2022/04/07 11:36:33;;;;;;;12.30;2.22;;;19.80;99.90;;;;;;5075215;28;20250;-70
2022/04/07 11:39:06;;;;;;;14.20;1.52;;;19.90;99.90;;;;;;5071419;28;20185;-70
2022/04/07 11:41:41;;;;;;;12.63;1.42;;;19.90;99.90;;;;;;5074091;28;20200;-69
2022/04/07 11:44:13;;;;;;;11.00;1.55;;;19.90;99.90;;;;;;5076818;28;20192;-70
2022/04/07 11:46:43;;;;;;;11.07;1.60;;;20.00;99.90;;;;;;5076559;28;20217;-70
2022/04/07 11:49:14;;;;;;;8.32;1.40;;;19.90;99.90;;;;;;5080869;28;20554;-70
2022/04/07 11:51:49;;;;;;;9.13;1.20;;;20.00;99.90;;;;;;5077941;28;20548;-70
2022/04/07 11:54:21;;;;;;;12.20;1.67;;;19.90;99.90;;;;;;5074716;28;20189;-76
2022/04/07 11:56:53;;;;;;;11.52;1.60;;;19.90;99.90;;;;;;5074429;28;20192;-70
2022/04/07 11:59:24;;;;;;;10.73;1.40;;;19.90;99.90;;;;;;5074217;28;20532;-71
2022/04/07 12:01:54;;;;;;;9.18;1.63;;;19.90;99.90;;;;;;5070957;28;20212;-70
2022/04/07 12:04:32;;;;;;;11.43;1.70;;;19.90;99.90;;;;;;5073317;28;20625;-70
2022/04/07 12:07:04;;;;;;;9.90;1.40;;;19.90;99.90;;;;;;5073132;28;20220;-71
2022/04/07 12:09:36;;;;;;;12.70;2.28;;;19.90;99.90;;;;;;5077117;28;20184;-72
2022/04/07 12:12:07;;;;;;;10.18;1.92;;;19.90;99.90;;;;;;5077627;28;20246;-70
2022/04/07 12:14:40;;;;;;;10.00;1.75;;;20.00;99.90;;;;;;5068009;28;20247;-70
2022/04/07 12:17:11;;;;;;;10.75;1.50;;;19.90;99.90;;;;;;5073360;28;20185;-69
2022/04/07 12:19:51;;;;;;;10.55;1.60;;;19.90;99.90;;;;;;5064972;28;20186;-70
2022/04/07 12:22:33;;;;;;;13.95;1.67;;;19.90;99.90;;;;;;5071908;28;20197;-71
2022/04/07 12:25:11;;;;;;;16.50;1.40;;;19.90;99.90;;;;;;5074253;28;20541;-71
2022/04/07 12:27:45;;;;;;;11.00;1.80;;;19.90;99.90;;;;;;5073041;28;20706;-71
2022/04/07 12:30:17;;;;;;;9.25;1.60;;;19.90;99.90;;;;;;5074554;28;20214;-70
2022/04/07 12:32:48;;;;;;;8.10;1.48;;;19.90;99.90;;;;;;5072576;28;20192;-73
2022/04/07 12:35:19;;;;;;;9.40;1.60;;;19.90;99.90;;;;;;5072891;28;20193;-71
2022/04/07 12:37:49;;;;;;;10.60;1.90;;;19.90;99.90;;;;;;5065683;28;20199;-70
2022/04/07 12:40:34;;;;;;;13.90;1.83;;;19.90;99.90;;;;;;5085714;28;20639;-71
2022/04/07 12:43:04;;;;;;;10.18;1.88;;;19.90;99.90;;;;;;5071775;28;20230;-72
2022/04/07 12:45:35;;;;;;;10.52;1.60;;;19.90;99.90;;;;;;5072035;28;20185;-73
2022/04/07 12:48:08;;;;;;;10.98;1.35;;;19.90;99.90;;;;;;5072435;28;20212;-70
2022/04/07 12:50:39;;;;;;;12.75;1.83;;;19.80;99.90;;;;;;5076332;28;20225;-70
2022/04/07 12:53:31;;;;;;;13.65;1.65;;;19.80;99.90;;;;;;5075337;28;20192;-76
2022/04/07 12:56:19;;;;;;;16.50;1.75;;;19.80;99.90;;;;;;5070453;28;20555;-71
2022/04/07 12:59:01;;;;;;;13.18;1.85;;;19.80;99.90;;;;;;5071062;28;20207;-71
2022/04/07 13:01:31;;;;;;;11.10;1.50;;;19.80;99.90;;;;;;5068484;28;20242;-73
2022/04/07 13:04:04;;;;;;;12.02;1.70;;;19.80;99.90;;;;;;5074533;28;20192;-71
2022/04/07 13:06:35;;;;;;;15.05;2.30;;;19.70;99.90;;;;;;5072642;28;20246;-71